LKLMER weather

Litoměřice
Czech Republic

Public forecast

Using degrees Celsius for public forecast. Weather courtesy of forecast.io.

Closest aviation weather report (METAR) to Litoměřice

Report is more than 6 hours old.

Closest report is Vodochody Airport, 20.3 nm (37.5 km) SSE. Retrieved 2019/12/13 13:00 UTC (16 hours ago):

LKVO 131300Z 16009KT 120V200 9999 BKN020 02/M02 Q0983

Closest aviation forecast (TAF) to Litoměřice

Closest forecast is Václav Havel Airport Prague, 25.7 nm (47.6 km) S. Retrieved 2019-12-14 00:12 UTC (4 hours ago):

TAF LKPR 132300Z 1400/1506 22014KT 9999 BKN023 TEMPO 1400/1506 7000 -RASN BKN013 PROB30 TEMPO 1408/1414 3500 RASN BKN007 TEMPO 1409/1420 25020G36KT